Flight Track Log - Related Links

Times and Time Zones

All times are in EDT time to prevent confusion due to time zone crossing. See the N911MN flight status page for this flight to view local times or setup timezone preferences in your user account.

Time Position Orientation Groundspeed Altitude Reporting Facility
EDT Latitude Longitude Course Direction KTS MPH feet Rate Location/Type
Wed 05:32:15 AM 43.6794 -96.6642 58° Northeast 186 214 5,900  Level Minneapolis Center
Wed 05:34:00 AM 43.7430 -96.5254 42° Northeast  Level FlightAware Approximate
Wed 05:41:00 AM 44.0906 -96.1024 41° Northeast  Level FlightAware Approximate
Wed 05:42:00 AM 44.1407 -96.0426 36° Northeast  Level FlightAware Approximate
Wed 05:43:00 AM 44.1921 -95.9849 42° Northeast  Level FlightAware Approximate
Wed 05:44:00 AM 44.2407 -95.9226 46° Northeast  Level FlightAware Approximate
Wed 05:45:00 AM 44.2863 -95.8558 46° Northeast  Level FlightAware Approximate
Wed 05:46:00 AM 44.3318 -95.7889 46° Northeast  Level FlightAware Approximate
Wed 05:47:00 AM 44.3773 -95.7220 46° Northeast  Level FlightAware Approximate
Wed 05:48:00 AM 44.4228 -95.6549 46° Northeast  Level FlightAware Approximate
Wed 05:49:00 AM 44.4682 -95.5877 47° Northeast  Level FlightAware Approximate
Wed 05:50:00 AM 44.5136 -95.5204 47° Northeast  Level FlightAware Approximate
Wed 05:51:00 AM 44.5589 -95.4531 47° Northeast  Level FlightAware Approximate
Wed 05:52:00 AM 44.5919 -95.3757 74° East  Level FlightAware Approximate
Wed 05:53:00 AM 44.6105 -95.2867 74° East  Level FlightAware Approximate
Wed 05:54:00 AM 44.6289 -95.1976 74° East  Level FlightAware Approximate
Wed 05:55:00 AM 44.6474 -95.1084 74° East  Level FlightAware Approximate
Wed 05:56:00 AM 44.6657 -95.0192 74° East  Level FlightAware Approximate
Wed 05:57:00 AM 44.6839 -94.9299 77° East  Level FlightAware Approximate
Wed 05:58:00 AM 44.6990 -94.8395 77° East  Level FlightAware Approximate
Wed 05:59:00 AM 44.7194 -94.7511 72° East  Level FlightAware Approximate
Wed 06:00:00 AM 44.7402 -94.6629 72° East  Level FlightAware Approximate
Wed 06:01:00 AM 44.7609 -94.5746 72° East  Level FlightAware Approximate
Wed 06:02:00 AM 44.7789 -94.4851 75° East  Level FlightAware Approximate
Wed 06:03:00 AM 44.7958 -94.3951 75° East  Level FlightAware Approximate
Wed 06:04:00 AM 44.8126 -94.3051 75° East  Level FlightAware Approximate
Wed 06:05:00 AM 44.8333 -94.2167 71° East  Level FlightAware Approximate
Wed 06:06:00 AM 44.8500 -94.1268 90° East  Level FlightAware Approximate
Wed 06:07:00 AM 44.8805 -94.0456 59° Northeast  Level FlightAware Approximate
Wed 06:08:00 AM 44.9163 -93.9674 55° Northeast  Level FlightAware Approximate
Wed 06:09:00 AM 44.9462 -93.8842 63° Northeast  Level FlightAware Approximate
Wed 06:10:00 AM 44.9760 -93.8009 63° Northeast  Level FlightAware Approximate
Wed 06:11:00 AM 45.0062 -93.7179 60° Northeast  Level FlightAware Approximate
Wed 06:12:00 AM 45.0388 -93.6366 60° Northeast  Level FlightAware Approximate
Wed 06:13:00 AM 45.0706 -93.5547 65° Northeast  Level FlightAware Approximate
Wed 06:14:00 AM 45.0955 -93.4697 60° Northeast  Level FlightAware Approximate
Wed 06:15:00 AM 45.1265 -93.3872 65° Northeast  Level FlightAware Approximate
Wed 06:16:00 AM 45.0853 -93.3500 180° South  Level FlightAware Approximate
Wed 06:17:00 AM 45.0620 -93.3539 180° South  Level Estimated
Wed 06:18:00 AM 45.0620 -93.3539 180° South  Level Estimated
Wed 06:19:00 AM 45.0620 -93.3539 180° South  Level Estimated
Wed 06:20:00 AM 45.0620 -93.3539 180° South  Level Estimated
Wed 06:21:00 AM 45.0620 -93.3539 180° South  Level Estimated
Wed 06:22:00 AM 45.0620 -93.3539 180° South  Level Estimated
Wed 06:23:00 AM 45.0620 -93.3539 180° South  Level Estimated
Wed 06:24:00 AM 45.0620 -93.3539 180° South  Level Estimated
Wed 06:25:00 AM 45.0620 -93.3539 180° South  Level Estimated
Wed 06:26:00 AM 45.0620 -93.3539 180° South  Level Estimated
Wed 06:27:00 AM 45.0620 -93.3539 180° South  Level Estimated
Wed 06:28:00 AM 45.0620 -93.3539 180° South  Level Estimated
Wed 06:29:00 AM 45.0620 -93.3539 180° South  Level Estimated
Wed 06:30:00 AM 45.0620 -93.3539 180° South  Level Estimated
Wed 06:31:00 AM 45.0620 -93.3539 180° South  Level Estimated
Wed 06:32:00 AM 45.0620 -93.3539 180° South  Level Estimated
Wed 06:33:00 AM 45.0620 -93.3539 180° South  Level Estimated

Login

Don't have an account? Register now (free) for customized features, flight alerts, and more!